sensor_id;sensor_type;location;lat;lon;timestamp;temperature;humidity
20091;DHT22;10205;49.678;6.560;2023-02-20T00:01:16;12.30;66.90
20091;DHT22;10205;49.678;6.560;2023-02-20T00:03:44;12.30;67.30
20091;DHT22;10205;49.678;6.560;2023-02-20T00:06:11;12.30;66.80
20091;DHT22;10205;49.678;6.560;2023-02-20T00:08:38;12.20;66.50
20091;DHT22;10205;49.678;6.560;2023-02-20T00:11:06;12.20;66.40
20091;DHT22;10205;49.678;6.560;2023-02-20T00:13:34;12.20;66.20
20091;DHT22;10205;49.678;6.560;2023-02-20T00:16:01;12.20;67.40
20091;DHT22;10205;49.678;6.560;2023-02-20T00:18:29;12.10;66.80
20091;DHT22;10205;49.678;6.560;2023-02-20T00:20:56;12.00;66.60
20091;DHT22;10205;49.678;6.560;2023-02-20T00:23:23;12.00;66.70
20091;DHT22;10205;49.678;6.560;2023-02-20T00:25:50;12.00;66.50
20091;DHT22;10205;49.678;6.560;2023-02-20T00:28:17;11.90;66.40
20091;DHT22;10205;49.678;6.560;2023-02-20T00:30:46;11.80;66.60
20091;DHT22;10205;49.678;6.560;2023-02-20T00:33:13;11.70;66.70
20091;DHT22;10205;49.678;6.560;2023-02-20T00:35:40;11.70;66.70
20091;DHT22;10205;49.678;6.560;2023-02-20T00:38:07;11.70;66.60
20091;DHT22;10205;49.678;6.560;2023-02-20T00:40:34;11.60;67.10
20091;DHT22;10205;49.678;6.560;2023-02-20T00:43:01;11.50;67.50
20091;DHT22;10205;49.678;6.560;2023-02-20T00:45:29;11.50;67.60
20091;DHT22;10205;49.678;6.560;2023-02-20T00:47:57;11.50;67.70
20091;DHT22;10205;49.678;6.560;2023-02-20T00:50:24;11.40;67.30
20091;DHT22;10205;49.678;6.560;2023-02-20T00:52:52;11.40;67.30
20091;DHT22;10205;49.678;6.560;2023-02-20T00:55:19;11.40;67.50
20091;DHT22;10205;49.678;6.560;2023-02-20T00:57:46;11.30;67.70
20091;DHT22;10205;49.678;6.560;2023-02-20T01:00:18;11.30;67.80
20091;DHT22;10205;49.678;6.560;2023-02-20T01:02:47;11.30;67.80
20091;DHT22;10205;49.678;6.560;2023-02-20T01:05:15;11.20;67.60
20091;DHT22;10205;49.678;6.560;2023-02-20T01:07:45;11.20;67.90
20091;DHT22;10205;49.678;6.560;2023-02-20T01:10:14;11.20;67.80
20091;DHT22;10205;49.678;6.560;2023-02-20T01:12:41;11.10;68.00
20091;DHT22;10205;49.678;6.560;2023-02-20T01:15:10;11.10;67.80
20091;DHT22;10205;49.678;6.560;2023-02-20T01:17:37;11.00;67.90
20091;DHT22;10205;49.678;6.560;2023-02-20T01:20:06;11.00;68.00
20091;DHT22;10205;49.678;6.560;2023-02-20T01:22:35;11.00;68.00
20091;DHT22;10205;49.678;6.560;2023-02-20T01:25:03;11.00;67.90
20091;DHT22;10205;49.678;6.560;2023-02-20T01:27:31;10.90;68.00
20091;DHT22;10205;49.678;6.560;2023-02-20T01:29:58;10.90;68.40
20091;DHT22;10205;49.678;6.560;2023-02-20T01:32:25;10.90;68.60
20091;DHT22;10205;49.678;6.560;2023-02-20T01:34:52;10.90;69.50
20091;DHT22;10205;49.678;6.560;2023-02-20T01:37:19;10.80;69.50
20091;DHT22;10205;49.678;6.560;2023-02-20T01:39:47;10.80;68.50
20091;DHT22;10205;49.678;6.560;2023-02-20T01:42:18;10.80;68.50
20091;DHT22;10205;49.678;6.560;2023-02-20T01:44:48;10.70;68.40
20091;DHT22;10205;49.678;6.560;2023-02-20T01:47:17;10.70;68.40
20091;DHT22;10205;49.678;6.560;2023-02-20T01:49:47;10.70;68.70
20091;DHT22;10205;49.678;6.560;2023-02-20T01:52:19;10.70;68.80
20091;DHT22;10205;49.678;6.560;2023-02-20T01:54:53;10.70;69.00
20091;DHT22;10205;49.678;6.560;2023-02-20T01:57:29;10.60;68.70
20091;DHT22;10205;49.678;6.560;2023-02-20T02:00:03;10.60;68.70
20091;DHT22;10205;49.678;6.560;2023-02-20T02:02:34;10.60;68.80
20091;DHT22;10205;49.678;6.560;2023-02-20T02:05:07;10.50;68.90
20091;DHT22;10205;49.678;6.560;2023-02-20T02:07:37;10.50;69.00
20091;DHT22;10205;49.678;6.560;2023-02-20T02:10:11;10.50;69.00
20091;DHT22;10205;49.678;6.560;2023-02-20T02:12:42;10.40;69.00
20091;DHT22;10205;49.678;6.560;2023-02-20T02:15:14;10.40;68.90
20091;DHT22;10205;49.678;6.560;2023-02-20T02:18:09;10.40;69.20
20091;DHT22;10205;49.678;6.560;2023-02-20T02:21:17;10.30;69.30
20091;DHT22;10205;49.678;6.560;2023-02-20T02:24:35;10.30;69.30
20091;DHT22;10205;49.678;6.560;2023-02-20T02:27:53;10.30;69.40
20091;DHT22;10205;49.678;6.560;2023-02-20T02:34:51;10.20;69.30
20091;DHT22;10205;49.678;6.560;2023-02-20T02:37:40;10.20;69.50
20091;DHT22;10205;49.678;6.560;2023-02-20T02:40:24;10.10;69.40
20091;DHT22;10205;49.678;6.560;2023-02-20T02:43:04;10.10;69.40
20091;DHT22;10205;49.678;6.560;2023-02-20T02:45:38;10.10;69.60
20091;DHT22;10205;49.678;6.560;2023-02-20T02:48:15;10.10;70.10
20091;DHT22;10205;49.678;6.560;2023-02-20T02:50:47;10.10;70.80
20091;DHT22;10205;49.678;6.560;2023-02-20T02:53:20;10.00;70.00
20091;DHT22;10205;49.678;6.560;2023-02-20T02:55:49;10.00;69.90
20091;DHT22;10205;49.678;6.560;2023-02-20T02:58:17;10.10;69.90
20091;DHT22;10205;49.678;6.560;2023-02-20T03:00:48;10.00;70.00
20091;DHT22;10205;49.678;6.560;2023-02-20T03:03:21;10.00;70.00
20091;DHT22;10205;49.678;6.560;2023-02-20T03:05:55;10.00;70.00
20091;DHT22;10205;49.678;6.560;2023-02-20T03:08:36;10.00;70.00
20091;DHT22;10205;49.678;6.560;2023-02-20T03:11:10;10.00;70.00
20091;DHT22;10205;49.678;6.560;2023-02-20T03:13:44;10.00;69.80
20091;DHT22;10205;49.678;6.560;2023-02-20T03:16:39;9.90;69.80
20091;DHT22;10205;49.678;6.560;2023-02-20T03:19:12;9.90;69.80
20091;DHT22;10205;49.678;6.560;2023-02-20T03:21:42;9.90;69.80
20091;DHT22;10205;49.678;6.560;2023-02-20T03:24:13;9.80;69.80
20091;DHT22;10205;49.678;6.560;2023-02-20T03:26:45;9.80;70.00
20091;DHT22;10205;49.678;6.560;2023-02-20T03:29:17;9.80;70.00
20091;DHT22;10205;49.678;6.560;2023-02-20T03:31:55;9.80;70.10
20091;DHT22;10205;49.678;6.560;2023-02-20T03:34:45;9.70;70.20
20091;DHT22;10205;49.678;6.560;2023-02-20T03:37:34;9.70;70.20
20091;DHT22;10205;49.678;6.560;2023-02-20T03:40:24;9.70;70.20
20091;DHT22;10205;49.678;6.560;2023-02-20T03:43:12;9.70;70.30
20091;DHT22;10205;49.678;6.560;2023-02-20T03:45:50;9.70;70.20
20091;DHT22;10205;49.678;6.560;2023-02-20T03:48:21;9.70;70.10
20091;DHT22;10205;49.678;6.560;2023-02-20T03:50:53;9.60;70.10
20091;DHT22;10205;49.678;6.560;2023-02-20T03:53:23;9.60;70.10
20091;DHT22;10205;49.678;6.560;2023-02-20T03:55:53;9.60;70.30
20091;DHT22;10205;49.678;6.560;2023-02-20T03:58:24;9.60;70.60
20091;DHT22;10205;49.678;6.560;2023-02-20T04:00:55;9.60;70.20
20091;DHT22;10205;49.678;6.560;2023-02-20T04:03:29;9.60;69.80
20091;DHT22;10205;49.678;6.560;2023-02-20T04:06:03;9.60;69.50
20091;DHT22;10205;49.678;6.560;2023-02-20T04:08:35;9.60;69.40
20091;DHT22;10205;49.678;6.560;2023-02-20T04:11:09;9.50;69.70
20091;DHT22;10205;49.678;6.560;2023-02-20T04:13:39;9.50;70.10
20091;DHT22;10205;49.678;6.560;2023-02-20T04:16:08;9.50;70.10
20091;DHT22;10205;49.678;6.560;2023-02-20T04:18:36;9.50;70.10
20091;DHT22;10205;49.678;6.560;2023-02-20T04:21:06;9.40;70.10
20091;DHT22;10205;49.678;6.560;2023-02-20T04:23:40;9.40;70.30
20091;DHT22;10205;49.678;6.560;2023-02-20T04:26:14;9.40;70.30
20091;DHT22;10205;49.678;6.560;2023-02-20T04:28:44;9.30;70.30
20091;DHT22;10205;49.678;6.560;2023-02-20T04:31:14;9.30;70.30
20091;DHT22;10205;49.678;6.560;2023-02-20T04:33:43;9.30;70.50
20091;DHT22;10205;49.678;6.560;2023-02-20T04:36:11;9.30;70.50
20091;DHT22;10205;49.678;6.560;2023-02-20T04:38:38;9.30;70.60
20091;DHT22;10205;49.678;6.560;2023-02-20T04:41:05;9.20;70.50
20091;DHT22;10205;49.678;6.560;2023-02-20T04:43:34;9.20;70.50
20091;DHT22;10205;49.678;6.560;2023-02-20T04:46:01;9.20;70.50
20091;DHT22;10205;49.678;6.560;2023-02-20T04:48:28;9.20;70.50
20091;DHT22;10205;49.678;6.560;2023-02-20T04:50:55;9.20;70.70
20091;DHT22;10205;49.678;6.560;2023-02-20T04:53:22;9.10;70.60
20091;DHT22;10205;49.678;6.560;2023-02-20T04:55:49;9.10;70.60
20091;DHT22;10205;49.678;6.560;2023-02-20T04:58:16;9.10;70.80
20091;DHT22;10205;49.678;6.560;2023-02-20T05:00:45;9.10;70.70
20091;DHT22;10205;49.678;6.560;2023-02-20T05:03:12;9.10;70.80
20091;DHT22;10205;49.678;6.560;2023-02-20T05:05:39;9.10;70.80
20091;DHT22;10205;49.678;6.560;2023-02-20T05:08:07;9.00;70.70
20091;DHT22;10205;49.678;6.560;2023-02-20T05:10:35;9.10;70.80
20091;DHT22;10205;49.678;6.560;2023-02-20T05:13:02;9.00;71.10
20091;DHT22;10205;49.678;6.560;2023-02-20T05:15:31;9.00;71.20
20091;DHT22;10205;49.678;6.560;2023-02-20T05:18:00;9.10;71.20
20091;DHT22;10205;49.678;6.560;2023-02-20T05:20:27;9.00;71.20
20091;DHT22;10205;49.678;6.560;2023-02-20T05:23:08;9.00;71.10
20091;DHT22;10205;49.678;6.560;2023-02-20T05:25:35;9.00;71.00
20091;DHT22;10205;49.678;6.560;2023-02-20T05:28:03;9.00;70.80
20091;DHT22;10205;49.678;6.560;2023-02-20T05:30:30;9.00;70.80
20091;DHT22;10205;49.678;6.560;2023-02-20T05:32:57;9.00;70.90
20091;DHT22;10205;49.678;6.560;2023-02-20T05:35:25;9.00;70.80
20091;DHT22;10205;49.678;6.560;2023-02-20T05:37:52;9.00;71.00
20091;DHT22;10205;49.678;6.560;2023-02-20T05:40:19;8.90;71.00
20091;DHT22;10205;49.678;6.560;2023-02-20T05:42:46;8.90;71.10
20091;DHT22;10205;49.678;6.560;2023-02-20T05:45:14;8.90;71.10
20091;DHT22;10205;49.678;6.560;2023-02-20T05:47:41;8.90;70.80
20091;DHT22;10205;49.678;6.560;2023-02-20T05:50:08;8.90;70.70
20091;DHT22;10205;49.678;6.560;2023-02-20T05:52:37;8.90;70.90
20091;DHT22;10205;49.678;6.560;2023-02-20T05:55:06;8.90;71.10
20091;DHT22;10205;49.678;6.560;2023-02-20T05:57:36;8.80;71.10
20091;DHT22;10205;49.678;6.560;2023-02-20T06:00:04;8.80;71.20
20091;DHT22;10205;49.678;6.560;2023-02-20T06:02:31;8.80;71.20
20091;DHT22;10205;49.678;6.560;2023-02-20T06:04:59;8.80;71.30
20091;DHT22;10205;49.678;6.560;2023-02-20T06:07:26;8.80;71.40
20091;DHT22;10205;49.678;6.560;2023-02-20T06:09:55;8.80;71.40
20091;DHT22;10205;49.678;6.560;2023-02-20T06:12:22;8.80;71.50
20091;DHT22;10205;49.678;6.560;2023-02-20T06:14:49;8.80;71.50
20091;DHT22;10205;49.678;6.560;2023-02-20T06:17:17;8.80;71.60
20091;DHT22;10205;49.678;6.560;2023-02-20T06:19:45;8.70;72.30
20091;DHT22;10205;49.678;6.560;2023-02-20T06:22:12;8.80;71.60
20091;DHT22;10205;49.678;6.560;2023-02-20T06:24:44;8.70;71.50
20091;DHT22;10205;49.678;6.560;2023-02-20T06:27:13;8.70;71.70
20091;DHT22;10205;49.678;6.560;2023-02-20T06:29:45;8.70;71.70
20091;DHT22;10205;49.678;6.560;2023-02-20T06:32:13;8.70;71.70
20091;DHT22;10205;49.678;6.560;2023-02-20T06:34:43;8.70;71.60
20091;DHT22;10205;49.678;6.560;2023-02-20T06:37:11;8.70;71.70
20091;DHT22;10205;49.678;6.560;2023-02-20T06:39:38;8.70;71.80
20091;DHT22;10205;49.678;6.560;2023-02-20T06:42:07;8.70;72.70
20091;DHT22;10205;49.678;6.560;2023-02-20T06:44:36;8.70;71.90
20091;DHT22;10205;49.678;6.560;2023-02-20T06:47:03;8.60;71.90
20091;DHT22;10205;49.678;6.560;2023-02-20T06:49:33;8.70;72.10
20091;DHT22;10205;49.678;6.560;2023-02-20T06:52:01;8.70;72.20
20091;DHT22;10205;49.678;6.560;2023-02-20T06:54:28;8.60;72.20
20091;DHT22;10205;49.678;6.560;2023-02-20T06:56:57;8.60;72.30
20091;DHT22;10205;49.678;6.560;2023-02-20T06:59:26;8.60;72.50
20091;DHT22;10205;49.678;6.560;2023-02-20T07:01:55;8.60;72.40
20091;DHT22;10205;49.678;6.560;2023-02-20T07:04:25;8.60;72.60
20091;DHT22;10205;49.678;6.560;2023-02-20T07:06:52;8.60;72.60
20091;DHT22;10205;49.678;6.560;2023-02-20T07:09:19;8.60;72.70
20091;DHT22;10205;49.678;6.560;2023-02-20T07:11:51;8.60;72.80
20091;DHT22;10205;49.678;6.560;2023-02-20T07:14:19;8.60;72.90
20091;DHT22;10205;49.678;6.560;2023-02-20T07:16:46;8.60;73.10
20091;DHT22;10205;49.678;6.560;2023-02-20T07:19:18;8.60;73.30
20091;DHT22;10205;49.678;6.560;2023-02-20T07:21:45;8.60;73.40
20091;DHT22;10205;49.678;6.560;2023-02-20T07:24:13;8.70;73.50
20091;DHT22;10205;49.678;6.560;2023-02-20T07:26:40;8.70;73.60
20091;DHT22;10205;49.678;6.560;2023-02-20T07:29:11;8.60;74.60
20091;DHT22;10205;49.678;6.560;2023-02-20T07:31:39;8.70;73.90
20091;DHT22;10205;49.678;6.560;2023-02-20T07:34:06;8.70;73.60
20091;DHT22;10205;49.678;6.560;2023-02-20T07:36:35;8.70;73.60
20091;DHT22;10205;49.678;6.560;2023-02-20T07:39:04;8.70;73.60
20091;DHT22;10205;49.678;6.560;2023-02-20T07:41:34;8.70;73.60
20091;DHT22;10205;49.678;6.560;2023-02-20T07:44:04;8.70;73.60
20091;DHT22;10205;49.678;6.560;2023-02-20T07:46:32;8.80;74.00
20091;DHT22;10205;49.678;6.560;2023-02-20T07:49:00;8.80;74.20
20091;DHT22;10205;49.678;6.560;2023-02-20T07:51:27;8.80;74.20
20091;DHT22;10205;49.678;6.560;2023-02-20T07:53:56;8.80;75.20
20091;DHT22;10205;49.678;6.560;2023-02-20T07:56:27;8.80;74.80
20091;DHT22;10205;49.678;6.560;2023-02-20T07:58:55;8.80;74.70
20091;DHT22;10205;49.678;6.560;2023-02-20T08:01:22;8.80;74.70
20091;DHT22;10205;49.678;6.560;2023-02-20T08:03:49;8.90;74.70
20091;DHT22;10205;49.678;6.560;2023-02-20T08:06:17;8.90;74.80
20091;DHT22;10205;49.678;6.560;2023-02-20T08:08:48;8.90;75.90
20091;DHT22;10205;49.678;6.560;2023-02-20T08:11:18;9.00;75.40
20091;DHT22;10205;49.678;6.560;2023-02-20T08:13:46;9.00;75.30
20091;DHT22;10205;49.678;6.560;2023-02-20T08:16:14;9.00;75.20
20091;DHT22;10205;49.678;6.560;2023-02-20T08:18:41;9.00;75.30
20091;DHT22;10205;49.678;6.560;2023-02-20T08:21:09;9.10;75.40
20091;DHT22;10205;49.678;6.560;2023-02-20T08:23:36;9.10;75.30
20091;DHT22;10205;49.678;6.560;2023-02-20T08:26:04;9.10;75.20
20091;DHT22;10205;49.678;6.560;2023-02-20T08:28:33;9.10;75.30
20091;DHT22;10205;49.678;6.560;2023-02-20T08:31:00;9.20;75.30
20091;DHT22;10205;49.678;6.560;2023-02-20T08:33:30;9.20;75.40
20091;DHT22;10205;49.678;6.560;2023-02-20T08:35:57;9.20;75.40
20091;DHT22;10205;49.678;6.560;2023-02-20T08:38:28;9.30;75.30
20091;DHT22;10205;49.678;6.560;2023-02-20T08:40:56;9.30;75.40
20091;DHT22;10205;49.678;6.560;2023-02-20T08:43:24;9.30;75.40
20091;DHT22;10205;49.678;6.560;2023-02-20T08:45:53;9.30;75.50
20091;DHT22;10205;49.678;6.560;2023-02-20T08:48:21;9.30;75.70
20091;DHT22;10205;49.678;6.560;2023-02-20T08:50:48;9.40;75.70
20091;DHT22;10205;49.678;6.560;2023-02-20T08:53:16;9.40;75.30
20091;DHT22;10205;49.678;6.560;2023-02-20T08:55:43;9.40;75.60
20091;DHT22;10205;49.678;6.560;2023-02-20T08:58:11;9.50;75.40
20091;DHT22;10205;49.678;6.560;2023-02-20T09:00:39;9.50;75.20
20091;DHT22;10205;49.678;6.560;2023-02-20T09:03:07;9.50;76.10
20091;DHT22;10205;49.678;6.560;2023-02-20T09:05:34;9.60;75.60
20091;DHT22;10205;49.678;6.560;2023-02-20T09:08:02;9.60;75.20
20091;DHT22;10205;49.678;6.560;2023-02-20T09:10:29;9.60;75.30
20091;DHT22;10205;49.678;6.560;2023-02-20T09:12:57;9.70;75.10
20091;DHT22;10205;49.678;6.560;2023-02-20T09:15:26;9.70;75.00
20091;DHT22;10205;49.678;6.560;2023-02-20T09:17:53;9.70;75.00
20091;DHT22;10205;49.678;6.560;2023-02-20T09:20:22;9.80;75.30
20091;DHT22;10205;49.678;6.560;2023-02-20T09:22:50;9.80;75.50
20091;DHT22;10205;49.678;6.560;2023-02-20T09:25:18;9.80;75.10
20091;DHT22;10205;49.678;6.560;2023-02-20T09:27:45;9.90;74.90
20091;DHT22;10205;49.678;6.560;2023-02-20T09:30:15;9.90;74.80
20091;DHT22;10205;49.678;6.560;2023-02-20T09:32:45;9.90;74.90
20091;DHT22;10205;49.678;6.560;2023-02-20T09:35:16;10.00;75.10
20091;DHT22;10205;49.678;6.560;2023-02-20T09:37:50;10.00;75.10
20091;DHT22;10205;49.678;6.560;2023-02-20T09:40:20;10.00;75.00
20091;DHT22;10205;49.678;6.560;2023-02-20T09:43:03;10.00;75.00
20091;DHT22;10205;49.678;6.560;2023-02-20T09:45:41;10.10;75.30
20091;DHT22;10205;49.678;6.560;2023-02-20T09:48:22;10.10;75.10
20091;DHT22;10205;49.678;6.560;2023-02-20T09:51:00;10.10;75.30
20091;DHT22;10205;49.678;6.560;2023-02-20T09:53:35;10.20;75.00
20091;DHT22;10205;49.678;6.560;2023-02-20T09:56:12;10.20;75.00
20091;DHT22;10205;49.678;6.560;2023-02-20T09:58:46;10.20;75.10
20091;DHT22;10205;49.678;6.560;2023-02-20T10:01:20;10.30;74.90
20091;DHT22;10205;49.678;6.560;2023-02-20T10:03:53;10.30;74.70
20091;DHT22;10205;49.678;6.560;2023-02-20T10:06:24;10.30;74.60
20091;DHT22;10205;49.678;6.560;2023-02-20T10:08:55;10.40;74.60
20091;DHT22;10205;49.678;6.560;2023-02-20T10:11:40;10.40;74.70
20091;DHT22;10205;49.678;6.560;2023-02-20T10:14:35;10.40;75.10
20091;DHT22;10205;49.678;6.560;2023-02-20T10:17:18;10.50;75.30
20091;DHT22;10205;49.678;6.560;2023-02-20T10:20:01;10.60;75.60
20091;DHT22;10205;49.678;6.560;2023-02-20T10:22:38;10.60;74.90
20091;DHT22;10205;49.678;6.560;2023-02-20T10:25:25;10.60;74.70
20091;DHT22;10205;49.678;6.560;2023-02-20T10:28:02;10.70;74.90
20091;DHT22;10205;49.678;6.560;2023-02-20T10:30:34;10.70;74.50
20091;DHT22;10205;49.678;6.560;2023-02-20T10:33:16;10.70;74.50
20091;DHT22;10205;49.678;6.560;2023-02-20T10:35:53;10.80;74.40
20091;DHT22;10205;49.678;6.560;2023-02-20T10:38:26;10.80;74.50
20091;DHT22;10205;49.678;6.560;2023-02-20T10:41:03;10.90;74.40
20091;DHT22;10205;49.678;6.560;2023-02-20T10:43:39;10.90;74.60
20091;DHT22;10205;49.678;6.560;2023-02-20T10:46:15;10.90;75.40
20091;DHT22;10205;49.678;6.560;2023-02-20T10:48:51;11.00;74.50
20091;DHT22;10205;49.678;6.560;2023-02-20T10:51:26;11.00;74.70
20091;DHT22;10205;49.678;6.560;2023-02-20T10:54:00;11.10;74.90
20091;DHT22;10205;49.678;6.560;2023-02-20T10:56:33;11.10;74.90
20091;DHT22;10205;49.678;6.560;2023-02-20T10:59:08;11.20;75.10
20091;DHT22;10205;49.678;6.560;2023-02-20T11:01:43;11.20;75.00
20091;DHT22;10205;49.678;6.560;2023-02-20T11:04:19;11.30;74.90
20091;DHT22;10205;49.678;6.560;2023-02-20T11:06:53;11.30;74.50
20091;DHT22;10205;49.678;6.560;2023-02-20T11:09:24;11.40;74.10
20091;DHT22;10205;49.678;6.560;2023-02-20T11:11:54;11.40;74.30
20091;DHT22;10205;49.678;6.560;2023-02-20T11:14:23;11.50;74.40
20091;DHT22;10205;49.678;6.560;2023-02-20T11:17:02;11.50;74.60
20091;DHT22;10205;49.678;6.560;2023-02-20T11:19:40;11.60;74.00
20091;DHT22;10205;49.678;6.560;2023-02-20T11:22:09;11.60;73.90
20091;DHT22;10205;49.678;6.560;2023-02-20T11:24:38;11.70;73.70
20091;DHT22;10205;49.678;6.560;2023-02-20T11:27:13;11.70;73.70
20091;DHT22;10205;49.678;6.560;2023-02-20T11:29:53;11.80;73.40
20091;DHT22;10205;49.678;6.560;2023-02-20T11:32:29;11.80;73.40
20091;DHT22;10205;49.678;6.560;2023-02-20T11:35:05;11.90;73.40
20091;DHT22;10205;49.678;6.560;2023-02-20T11:37:48;11.90;73.60
20091;DHT22;10205;49.678;6.560;2023-02-20T11:40:24;12.00;73.40
20091;DHT22;10205;49.678;6.560;2023-02-20T11:42:56;12.00;73.20
20091;DHT22;10205;49.678;6.560;2023-02-20T11:45:36;12.10;73.00
20091;DHT22;10205;49.678;6.560;2023-02-20T11:48:08;12.20;72.90
20091;DHT22;10205;49.678;6.560;2023-02-20T11:50:38;12.20;72.80
20091;DHT22;10205;49.678;6.560;2023-02-20T11:53:17;12.20;72.60
20091;DHT22;10205;49.678;6.560;2023-02-20T11:55:47;12.20;72.40
20091;DHT22;10205;49.678;6.560;2023-02-20T11:58:24;12.30;72.20
20091;DHT22;10205;49.678;6.560;2023-02-20T12:00:54;12.30;71.90
20091;DHT22;10205;49.678;6.560;2023-02-20T12:03:23;12.40;71.80
20091;DHT22;10205;49.678;6.560;2023-02-20T12:05:54;12.40;71.40
20091;DHT22;10205;49.678;6.560;2023-02-20T12:08:41;12.50;71.00
20091;DHT22;10205;49.678;6.560;2023-02-20T12:11:19;12.50;70.80
20091;DHT22;10205;49.678;6.560;2023-02-20T12:13:51;12.50;71.10
20091;DHT22;10205;49.678;6.560;2023-02-20T12:16:36;12.60;70.70
20091;DHT22;10205;49.678;6.560;2023-02-20T12:19:18;12.60;70.30
20091;DHT22;10205;49.678;6.560;2023-02-20T12:22:00;12.70;70.60
20091;DHT22;10205;49.678;6.560;2023-02-20T12:24:54;12.70;70.40
20091;DHT22;10205;49.678;6.560;2023-02-20T12:27:43;12.80;70.00
20091;DHT22;10205;49.678;6.560;2023-02-20T12:30:34;12.90;70.40
20091;DHT22;10205;49.678;6.560;2023-02-20T12:33:33;12.90;70.10
20091;DHT22;10205;49.678;6.560;2023-02-20T12:36:28;13.00;70.30
20091;DHT22;10205;49.678;6.560;2023-02-20T12:39:06;13.10;70.00
20091;DHT22;10205;49.678;6.560;2023-02-20T12:41:49;13.10;69.80
20091;DHT22;10205;49.678;6.560;2023-02-20T12:44:37;13.20;69.40
20091;DHT22;10205;49.678;6.560;2023-02-20T12:47:23;13.20;69.00
20091;DHT22;10205;49.678;6.560;2023-02-20T12:50:13;13.30;68.90
20091;DHT22;10205;49.678;6.560;2023-02-20T12:53:23;13.30;68.90
20091;DHT22;10205;49.678;6.560;2023-02-20T12:56:07;13.40;68.50
20091;DHT22;10205;49.678;6.560;2023-02-20T12:58:47;13.40;69.00
20091;DHT22;10205;49.678;6.560;2023-02-20T13:01:22;13.50;68.90
20091;DHT22;10205;49.678;6.560;2023-02-20T13:03:58;13.60;69.00
20091;DHT22;10205;49.678;6.560;2023-02-20T13:06:34;13.60;68.40
20091;DHT22;10205;49.678;6.560;2023-02-20T13:09:17;13.70;68.90
20091;DHT22;10205;49.678;6.560;2023-02-20T13:11:49;13.70;68.20
20091;DHT22;10205;49.678;6.560;2023-02-20T13:14:39;13.80;68.20
20091;DHT22;10205;49.678;6.560;2023-02-20T13:17:27;13.80;67.90
20091;DHT22;10205;49.678;6.560;2023-02-20T13:20:09;13.90;67.80
20091;DHT22;10205;49.678;6.560;2023-02-20T13:22:41;13.90;67.40
20091;DHT22;10205;49.678;6.560;2023-02-20T13:25:33;14.00;67.90
20091;DHT22;10205;49.678;6.560;2023-02-20T13:31:18;14.00;66.90
20091;DHT22;10205;49.678;6.560;2023-02-20T13:33:49;14.10;66.80
20091;DHT22;10205;49.678;6.560;2023-02-20T13:36:43;14.10;67.20
20091;DHT22;10205;49.678;6.560;2023-02-20T13:39:46;14.20;66.20
20091;DHT22;10205;49.678;6.560;2023-02-20T13:42:40;14.20;65.90
20091;DHT22;10205;49.678;6.560;2023-02-20T13:45:36;14.30;66.90
20091;DHT22;10205;49.678;6.560;2023-02-20T13:48:39;14.30;65.40
20091;DHT22;10205;49.678;6.560;2023-02-20T13:51:30;14.30;65.90
20091;DHT22;10205;49.678;6.560;2023-02-20T13:54:15;14.40;66.00
20091;DHT22;10205;49.678;6.560;2023-02-20T13:56:57;14.40;65.60
20091;DHT22;10205;49.678;6.560;2023-02-20T13:59:32;14.40;65.50
20091;DHT22;10205;49.678;6.560;2023-02-20T14:02:15;14.50;65.00
20091;DHT22;10205;49.678;6.560;2023-02-20T14:04:56;14.50;65.10
20091;DHT22;10205;49.678;6.560;2023-02-20T14:07:30;14.60;64.90
20091;DHT22;10205;49.678;6.560;2023-02-20T14:10:05;14.60;65.10
20091;DHT22;10205;49.678;6.560;2023-02-20T14:12:34;14.60;64.40
20091;DHT22;10205;49.678;6.560;2023-02-20T14:15:03;14.60;64.80
20091;DHT22;10205;49.678;6.560;2023-02-20T14:17:33;14.70;64.90
20091;DHT22;10205;49.678;6.560;2023-02-20T14:20:05;14.70;64.50
20091;DHT22;10205;49.678;6.560;2023-02-20T14:22:47;14.70;64.20
20091;DHT22;10205;49.678;6.560;2023-02-20T14:25:26;14.80;64.50
20091;DHT22;10205;49.678;6.560;2023-02-20T14:28:11;14.80;65.30
20091;DHT22;10205;49.678;6.560;2023-02-20T14:30:40;14.80;63.50
20091;DHT22;10205;49.678;6.560;2023-02-20T14:33:27;14.80;63.80
20091;DHT22;10205;49.678;6.560;2023-02-20T14:36:17;14.80;62.40
20091;DHT22;10205;49.678;6.560;2023-02-20T14:39:00;14.80;62.10
20091;DHT22;10205;49.678;6.560;2023-02-20T14:41:50;14.90;62.40
20091;DHT22;10205;49.678;6.560;2023-02-20T14:44:19;14.90;62.20
20091;DHT22;10205;49.678;6.560;2023-02-20T14:46:50;14.90;62.40
20091;DHT22;10205;49.678;6.560;2023-02-20T14:49:25;14.90;63.00
20091;DHT22;10205;49.678;6.560;2023-02-20T14:52:13;15.00;62.50
20091;DHT22;10205;49.678;6.560;2023-02-20T14:54:42;15.00;61.80
20091;DHT22;10205;49.678;6.560;2023-02-20T14:57:22;15.00;62.20
20091;DHT22;10205;49.678;6.560;2023-02-20T15:00:09;15.00;62.10
20091;DHT22;10205;49.678;6.560;2023-02-20T15:02:51;15.00;61.00
20091;DHT22;10205;49.678;6.560;2023-02-20T15:05:27;15.10;62.10
20091;DHT22;10205;49.678;6.560;2023-02-20T15:08:09;15.10;61.70
20091;DHT22;10205;49.678;6.560;2023-02-20T15:10:47;15.10;61.80
20091;DHT22;10205;49.678;6.560;2023-02-20T15:13:20;15.10;62.50
20091;DHT22;10205;49.678;6.560;2023-02-20T15:16:04;15.10;62.00
20091;DHT22;10205;49.678;6.560;2023-02-20T15:18:34;15.20;62.20
20091;DHT22;10205;49.678;6.560;2023-02-20T15:21:05;15.20;62.10
20091;DHT22;10205;49.678;6.560;2023-02-20T15:23:33;15.20;61.80
20091;DHT22;10205;49.678;6.560;2023-02-20T15:26:25;15.20;61.70
20091;DHT22;10205;49.678;6.560;2023-02-20T15:29:18;15.20;61.70
20091;DHT22;10205;49.678;6.560;2023-02-20T15:31:54;15.20;61.40
20091;DHT22;10205;49.678;6.560;2023-02-20T15:34:24;15.20;60.00
20091;DHT22;10205;49.678;6.560;2023-02-20T15:36:53;15.30;60.90
20091;DHT22;10205;49.678;6.560;2023-02-20T15:39:21;15.20;60.60
20091;DHT22;10205;49.678;6.560;2023-02-20T15:41:48;15.30;60.50
20091;DHT22;10205;49.678;6.560;2023-02-20T15:44:19;15.20;60.40
20091;DHT22;10205;49.678;6.560;2023-02-20T15:46:46;15.30;61.00
20091;DHT22;10205;49.678;6.560;2023-02-20T15:49:16;15.30;60.50
20091;DHT22;10205;49.678;6.560;2023-02-20T15:51:43;15.30;60.70
20091;DHT22;10205;49.678;6.560;2023-02-20T15:54:14;15.30;61.30
20091;DHT22;10205;49.678;6.560;2023-02-20T15:56:43;15.30;61.10
20091;DHT22;10205;49.678;6.560;2023-02-20T15:59:12;15.30;61.10
20091;DHT22;10205;49.678;6.560;2023-02-20T16:01:41;15.20;60.50
20091;DHT22;10205;49.678;6.560;2023-02-20T16:04:13;15.20;61.10
20091;DHT22;10205;49.678;6.560;2023-02-20T16:06:40;15.20;60.50
20091;DHT22;10205;49.678;6.560;2023-02-20T16:09:08;15.20;61.00
20091;DHT22;10205;49.678;6.560;2023-02-20T16:11:37;15.20;60.30
20091;DHT22;10205;49.678;6.560;2023-02-20T16:14:08;15.20;60.70
20091;DHT22;10205;49.678;6.560;2023-02-20T16:16:44;15.20;59.50
20091;DHT22;10205;49.678;6.560;2023-02-20T16:19:14;15.20;59.30
20091;DHT22;10205;49.678;6.560;2023-02-20T16:21:44;15.20;59.90
20091;DHT22;10205;49.678;6.560;2023-02-20T16:24:12;15.10;59.60